createdAt,value
2023-02-03T00:01:09.084Z,180.80
2023-02-03T00:03:36.747Z,184.83
2023-02-03T00:06:05.371Z,182.70
2023-02-03T00:08:33.159Z,185.77
2023-02-03T00:11:01.191Z,168.37
2023-02-03T00:13:30.296Z,175.83
2023-02-03T00:15:58.020Z,182.50
2023-02-03T00:18:25.763Z,186.30
2023-02-03T00:20:53.469Z,185.93
2023-02-03T00:23:21.323Z,184.67
2023-02-03T00:25:49.035Z,169.03
2023-02-03T00:28:16.720Z,186.00
2023-02-03T00:30:45.743Z,178.30
2023-02-03T00:33:13.403Z,168.27
2023-02-03T00:35:42.050Z,173.90
2023-02-03T00:38:09.685Z,172.30
2023-02-03T00:40:37.308Z,171.97
2023-02-03T00:43:05.207Z,179.03
2023-02-03T00:45:33.080Z,183.77
2023-02-03T00:48:02.167Z,175.70
2023-02-03T00:50:29.880Z,201.80
2023-02-03T00:52:58.370Z,176.60
2023-02-03T00:55:26.925Z,170.63
2023-02-03T00:57:54.605Z,161.37
2023-02-03T01:00:22.481Z,182.43
2023-02-03T01:02:50.245Z,163.90
2023-02-03T01:05:19.259Z,173.63
2023-02-03T01:07:46.951Z,172.57
2023-02-03T01:10:15.663Z,193.53
2023-02-03T01:12:43.493Z,181.03
2023-02-03T01:15:11.639Z,190.73
2023-02-03T01:17:39.447Z,173.23
2023-02-03T01:20:07.959Z,158.80
2023-02-03T01:22:37.333Z,173.77
2023-02-03T01:25:05.381Z,169.83
2023-02-03T01:27:33.197Z,173.97
2023-02-03T01:30:00.894Z,192.93
2023-02-03T01:32:28.616Z,176.67
2023-02-03T01:34:57.827Z,180.10
2023-02-03T01:37:25.457Z,179.20
2023-02-03T01:39:57.550Z,184.50
2023-02-03T01:42:25.294Z,183.03
2023-02-03T01:44:53.620Z,160.73
2023-02-03T01:47:31.607Z,177.77
2023-02-03T01:50:07.489Z,175.43
2023-02-03T01:52:36.508Z,180.63
2023-02-03T01:55:08.985Z,173.67
2023-02-03T01:57:41.038Z,168.87
2023-02-03T02:00:10.143Z,177.63
2023-02-03T02:02:46.631Z,173.63
2023-02-03T02:05:21.404Z,175.77
2023-02-03T02:07:50.695Z,177.70
2023-02-03T02:10:19.688Z,190.57
2023-02-03T02:12:48.784Z,185.83
2023-02-03T02:15:16.665Z,172.63
2023-02-03T02:18:07.493Z,176.27
2023-02-03T02:21:17.438Z,173.23
2023-02-03T02:24:33.880Z,167.37
2023-02-03T02:27:08.761Z,166.40
2023-02-03T02:29:58.198Z,168.30
2023-02-03T02:32:48.139Z,162.73
2023-02-03T02:35:22.487Z,176.83
2023-02-03T02:38:00.083Z,175.03
2023-02-03T02:40:35.723Z,175.83
2023-02-03T02:43:11.898Z,174.83
2023-02-03T02:45:47.538Z,168.33
2023-02-03T02:48:23.958Z,171.20
2023-02-03T02:50:55.145Z,180.00
2023-02-03T02:53:27.559Z,158.53
2023-02-03T02:55:58.423Z,169.80
2023-02-03T02:58:29.056Z,174.70
2023-02-03T03:00:56.839Z,180.87
2023-02-03T03:03:26.198Z,164.83
2023-02-03T03:05:57.065Z,184.83
2023-02-03T03:08:34.662Z,181.90
2023-02-03T03:11:03.491Z,172.67
2023-02-03T03:13:33.591Z,180.60
2023-02-03T03:16:07.506Z,187.00
2023-02-03T03:18:43.388Z,178.43
2023-02-03T03:21:15.620Z,167.27
2023-02-03T03:23:48.716Z,182.77
2023-02-03T03:26:23.419Z,182.87
2023-02-03T03:28:55.759Z,174.60
2023-02-03T03:31:23.589Z,178.13
2023-02-03T03:33:52.775Z,182.03
2023-02-03T03:36:26.081Z,176.47
2023-02-03T03:39:01.574Z,183.67
2023-02-03T03:41:39.408Z,171.50
2023-02-03T03:44:12.629Z,166.87
2023-02-03T03:46:44.869Z,176.40
2023-02-03T03:49:15.005Z,162.47
2023-02-03T03:51:47.968Z,160.77
2023-02-03T03:54:19.906Z,156.03
2023-02-03T03:56:53.086Z,138.60
2023-02-03T03:59:23.745Z,151.63
2023-02-03T04:01:52.745Z,147.40
2023-02-03T04:04:24.153Z,153.63
2023-02-03T04:06:54.377Z,151.10
2023-02-03T04:09:22.071Z,146.10
2023-02-03T04:12:06.159Z,165.90
2023-02-03T04:14:35.821Z,145.40
2023-02-03T04:17:03.721Z,165.67
2023-02-03T04:19:33.028Z,160.40
2023-02-03T04:22:00.718Z,168.77
2023-02-03T04:24:28.329Z,160.60
2023-02-03T04:26:56.224Z,160.80
2023-02-03T04:29:23.868Z,159.20
2023-02-03T04:31:51.560Z,166.17
2023-02-03T04:34:19.218Z,164.93
2023-02-03T04:36:48.182Z,154.87
2023-02-03T04:39:15.810Z,180.50
2023-02-03T04:41:43.490Z,161.07
2023-02-03T04:44:11.211Z,168.87
2023-02-03T04:46:38.873Z,177.83
2023-02-03T04:49:06.851Z,162.47
2023-02-03T04:51:34.559Z,169.97
2023-02-03T04:54:03.519Z,158.47
2023-02-03T04:56:31.261Z,166.97
2023-02-03T04:58:58.905Z,156.07
2023-02-03T05:01:26.696Z,172.17
2023-02-03T05:03:54.417Z,159.83
2023-02-03T05:06:25.150Z,172.87
2023-02-03T05:08:52.876Z,162.40
2023-02-03T05:11:22.142Z,171.23
2023-02-03T05:13:49.831Z,166.33
2023-02-03T05:16:17.690Z,180.83
2023-02-03T05:18:45.440Z,175.00
2023-02-03T05:21:13.136Z,167.63
2023-02-03T05:23:40.838Z,164.07
2023-02-03T05:26:08.495Z,179.33
2023-02-03T05:28:37.485Z,163.77
2023-02-03T05:31:06.054Z,172.07
2023-02-03T05:33:33.847Z,165.07
2023-02-03T05:36:01.482Z,165.40
2023-02-03T05:38:29.084Z,171.53
2023-02-03T05:41:14.521Z,172.93
2023-02-03T05:43:43.520Z,169.53
2023-02-03T05:46:11.385Z,155.83
2023-02-03T05:48:39.110Z,171.87
2023-02-03T05:51:06.941Z,168.13
2023-02-03T05:53:34.553Z,183.10
2023-02-03T05:56:02.238Z,172.13
2023-02-03T05:58:29.941Z,187.97
2023-02-03T06:00:58.948Z,202.63
2023-02-03T06:03:26.867Z,184.00
2023-02-03T06:05:54.510Z,203.77
2023-02-03T06:08:22.177Z,204.93
2023-02-03T06:10:49.877Z,200.80
2023-02-03T06:13:17.495Z,197.23
2023-02-03T06:15:45.185Z,181.33
2023-02-03T06:18:14.252Z,193.00
2023-02-03T06:20:42.028Z,192.87
2023-02-03T06:23:09.640Z,199.03
2023-02-03T06:25:37.267Z,211.00
2023-02-03T06:28:05.346Z,205.03
2023-02-03T06:30:33.147Z,191.73
2023-02-03T06:33:00.879Z,188.77
2023-02-03T06:35:29.950Z,202.03
2023-02-03T06:37:57.673Z,197.57
2023-02-03T06:40:25.560Z,178.93
2023-02-03T06:42:53.401Z,194.03
2023-02-03T06:45:21.067Z,188.70
2023-02-03T06:47:48.718Z,192.47
2023-02-03T06:50:17.131Z,184.43
2023-02-03T06:52:46.437Z,200.63
2023-02-03T06:55:14.099Z,190.70
2023-02-03T06:57:45.910Z,194.23
2023-02-03T07:00:18.448Z,184.77
2023-02-03T07:02:47.023Z,189.27
2023-02-03T07:05:14.876Z,173.47
2023-02-03T07:07:42.548Z,199.83
2023-02-03T07:10:11.747Z,195.07
2023-02-03T07:12:39.405Z,196.77
2023-02-03T07:15:07.700Z,200.27
2023-02-03T07:17:35.583Z,191.33
2023-02-03T07:20:05.903Z,194.20
2023-02-03T07:22:33.818Z,203.40
2023-02-03T07:25:01.561Z,202.53
2023-02-03T07:27:32.728Z,187.33
2023-02-03T07:30:00.407Z,200.27
2023-02-03T07:32:28.158Z,175.60
2023-02-03T07:34:55.883Z,179.77
2023-02-03T07:37:23.905Z,188.93
2023-02-03T07:39:51.536Z,192.37
2023-02-03T07:42:19.198Z,196.70
2023-02-03T07:44:51.963Z,193.13
2023-02-03T07:47:19.643Z,199.23
2023-02-03T07:49:47.298Z,201.70
2023-02-03T07:52:14.973Z,192.00
2023-02-03T07:54:42.711Z,199.07
2023-02-03T07:57:10.319Z,191.70
2023-02-03T07:59:37.972Z,186.83
2023-02-03T08:02:09.126Z,190.03
2023-02-03T08:04:36.832Z,192.57
2023-02-03T08:07:04.958Z,191.47
2023-02-03T08:09:32.778Z,193.50
2023-02-03T08:12:00.481Z,192.83
2023-02-03T08:14:28.147Z,195.70
2023-02-03T08:16:55.766Z,185.67
2023-02-03T08:19:24.781Z,185.63
2023-02-03T08:21:52.494Z,195.43
2023-02-03T08:24:20.227Z,196.30
2023-02-03T08:26:47.840Z,198.07
2023-02-03T08:29:15.510Z,182.03
2023-02-03T08:31:43.564Z,184.93
2023-02-03T08:34:11.389Z,187.07
2023-02-03T08:36:40.675Z,180.77
2023-02-03T08:39:08.515Z,188.37
2023-02-03T08:41:36.175Z,176.73
2023-02-03T08:44:03.869Z,206.33
2023-02-03T08:46:31.587Z,193.67
2023-02-03T08:49:00.652Z,207.23
2023-02-03T08:51:28.307Z,207.60
2023-02-03T08:53:57.257Z,186.73
2023-02-03T08:56:26.389Z,186.60
2023-02-03T08:58:55.979Z,189.50
2023-02-03T09:01:23.869Z,222.27
2023-02-03T09:03:51.620Z,218.20
2023-02-03T09:06:21.353Z,196.17
2023-02-03T09:08:50.442Z,195.03
2023-02-03T09:11:19.799Z,200.93
2023-02-03T09:13:48.621Z,205.60
2023-02-03T09:16:18.819Z,218.73
2023-02-03T09:18:47.278Z,208.10
2023-02-03T09:21:31.727Z,206.53
2023-02-03T09:24:05.253Z,203.73
2023-02-03T09:26:34.270Z,190.40
2023-02-03T09:29:02.173Z,217.07
2023-02-03T09:31:30.089Z,203.77
2023-02-03T09:33:57.762Z,211.30
2023-02-03T09:36:25.415Z,215.33
2023-02-03T09:38:53.715Z,212.70
2023-02-03T09:41:42.477Z,208.53
2023-02-03T09:44:17.588Z,205.73
2023-02-03T09:46:47.786Z,207.07
2023-02-03T09:49:22.100Z,215.70
2023-02-03T09:51:53.559Z,209.63
2023-02-03T09:54:27.253Z,218.10
2023-02-03T09:57:00.182Z,204.17
2023-02-03T09:59:32.635Z,209.63
2023-02-03T10:02:10.106Z,214.57
2023-02-03T10:04:40.523Z,192.63
2023-02-03T10:07:16.776Z,202.37
2023-02-03T10:09:56.002Z,188.70
2023-02-03T10:12:44.877Z,210.47
2023-02-03T10:15:56.881Z,208.13
2023-02-03T10:18:29.481Z,188.07
2023-02-03T10:21:03.938Z,187.43
2023-02-03T10:23:36.177Z,208.00
2023-02-03T10:26:08.043Z,205.33
2023-02-03T10:28:41.521Z,205.07
2023-02-03T10:31:18.526Z,203.20
2023-02-03T10:33:47.440Z,214.57
2023-02-03T10:36:20.949Z,192.37
2023-02-03T10:38:57.580Z,211.17
2023-02-03T10:41:25.581Z,215.07
2023-02-03T10:43:57.371Z,221.50
2023-02-03T10:46:30.576Z,207.87
2023-02-03T10:48:58.333Z,202.63
2023-02-03T10:51:30.246Z,204.50
2023-02-03T10:53:58.112Z,202.47
2023-02-03T10:56:30.432Z,224.93
2023-02-03T10:59:01.585Z,203.43
2023-02-03T11:01:41.835Z,210.27
2023-02-03T11:04:26.744Z,210.70
2023-02-03T11:06:57.057Z,195.87
2023-02-03T11:09:32.204Z,196.23
2023-02-03T11:12:19.152Z,202.10
2023-02-03T11:14:50.039Z,195.10
2023-02-03T11:17:19.541Z,212.67
2023-02-03T11:19:49.363Z,212.60
2023-02-03T11:22:29.861Z,196.40
2023-02-03T11:24:58.863Z,230.90
2023-02-03T11:27:30.680Z,205.53
2023-02-03T11:30:15.281Z,212.90
2023-02-03T11:32:45.576Z,208.13
2023-02-03T11:35:20.112Z,218.87
2023-02-03T11:37:50.565Z,199.83
2023-02-03T11:40:28.102Z,199.20
2023-02-03T11:43:15.309Z,204.93
2023-02-03T11:45:46.485Z,181.07
2023-02-03T11:48:26.159Z,204.67
2023-02-03T11:51:04.155Z,192.90
2023-02-03T11:53:56.889Z,200.67
2023-02-03T11:56:37.010Z,208.07
2023-02-03T11:59:22.346Z,196.10
2023-02-03T12:02:25.403Z,194.40
2023-02-03T12:05:07.619Z,192.80
2023-02-03T12:07:50.272Z,205.33
2023-02-03T12:10:31.997Z,201.47
2023-02-03T12:13:09.037Z,193.00
2023-02-03T12:15:52.978Z,206.17
2023-02-03T12:18:38.947Z,194.60
2023-02-03T12:21:32.128Z,205.70
2023-02-03T12:24:09.097Z,192.80
2023-02-03T12:26:43.956Z,202.63
2023-02-03T12:29:17.351Z,215.60
2023-02-03T12:31:51.020Z,216.87
2023-02-03T12:34:22.983Z,209.77
2023-02-03T12:36:58.168Z,217.80
2023-02-03T12:39:30.454Z,209.37
2023-02-03T12:42:02.551Z,215.70
2023-02-03T12:44:35.398Z,200.23
2023-02-03T12:47:08.398Z,231.27
2023-02-03T12:49:43.164Z,218.13
2023-02-03T12:52:19.817Z,212.70
2023-02-03T12:54:53.465Z,206.70
2023-02-03T12:57:28.247Z,186.23
2023-02-03T13:00:16.903Z,197.90
2023-02-03T13:02:57.801Z,215.47
2023-02-03T13:05:31.251Z,203.03
2023-02-03T13:08:11.660Z,214.20
2023-02-03T13:10:48.517Z,206.67
2023-02-03T13:13:22.464Z,228.80
2023-02-03T13:15:53.503Z,223.43
2023-02-03T13:18:28.169Z,213.00
2023-02-03T13:20:56.589Z,204.87
2023-02-03T13:23:26.035Z,227.97
2023-02-03T13:26:15.223Z,206.43
2023-02-03T13:28:57.481Z,204.50
2023-02-03T13:31:38.588Z,206.33
2023-02-03T13:34:30.303Z,203.60
2023-02-03T13:37:21.256Z,211.97
2023-02-03T13:40:13.090Z,209.23
2023-02-03T13:42:47.005Z,214.60
2023-02-03T13:45:23.256Z,220.33
2023-02-03T13:47:53.934Z,212.70
2023-02-03T13:50:24.817Z,207.20
2023-02-03T13:53:00.155Z,219.37
2023-02-03T13:55:37.915Z,198.27
2023-02-03T13:58:08.519Z,208.00
2023-02-03T14:01:03.239Z,208.47
2023-02-03T14:03:45.630Z,211.07
2023-02-03T14:07:02.425Z,203.57
2023-02-03T14:10:05.870Z,194.67
2023-02-03T14:12:37.495Z,193.03
2023-02-03T14:15:21.589Z,207.70
2023-02-03T14:18:06.612Z,213.97
2023-02-03T14:20:49.112Z,201.67
2023-02-03T14:23:22.351Z,222.93
2023-02-03T14:25:53.712Z,194.73
2023-02-03T14:28:26.768Z,204.73
2023-02-03T14:31:05.299Z,219.83
2023-02-03T14:33:54.893Z,208.90
2023-02-03T14:36:31.707Z,210.90
2023-02-03T14:39:02.383Z,200.07
2023-02-03T14:41:43.323Z,212.53
2023-02-03T14:44:24.295Z,202.57
2023-02-03T14:47:08.181Z,202.83
2023-02-03T14:49:56.797Z,208.00
2023-02-03T14:52:37.981Z,201.37
2023-02-03T14:55:24.878Z,194.97
2023-02-03T14:57:56.112Z,198.73
2023-02-03T15:00:31.827Z,198.03
2023-02-03T15:03:22.878Z,197.03
2023-02-03T15:05:52.869Z,187.40
2023-02-03T15:08:45.279Z,201.90
2023-02-03T15:11:32.150Z,202.40
2023-02-03T15:14:19.033Z,208.57
2023-02-03T15:16:51.814Z,187.17
2023-02-03T15:19:22.164Z,212.50
2023-02-03T15:21:49.896Z,217.43
2023-02-03T15:24:21.390Z,211.17
2023-02-03T15:26:51.882Z,210.33
2023-02-03T15:29:31.163Z,201.40
2023-02-03T15:32:07.312Z,185.63
2023-02-03T15:34:39.770Z,201.80
2023-02-03T15:37:17.585Z,207.37
2023-02-03T15:39:53.063Z,202.87
2023-02-03T15:42:26.077Z,201.20
2023-02-03T15:44:58.808Z,207.47
2023-02-03T15:47:32.669Z,206.97
2023-02-03T15:50:06.956Z,199.70
2023-02-03T15:52:40.936Z,200.40
2023-02-03T15:55:20.858Z,210.10
2023-02-03T15:57:51.424Z,200.33
2023-02-03T16:00:39.599Z,202.93
2023-02-03T16:03:21.437Z,198.97
2023-02-03T16:05:50.288Z,211.10
2023-02-03T16:08:38.001Z,220.03
2023-02-03T16:11:24.688Z,197.40
2023-02-03T16:13:55.122Z,207.27
2023-02-03T16:16:26.493Z,212.17
2023-02-03T16:18:57.656Z,218.37
2023-02-03T16:21:35.898Z,192.83
2023-02-03T16:24:06.000Z,192.77
2023-02-03T16:26:36.600Z,223.87
2023-02-03T16:29:33.358Z,212.97
2023-02-03T16:32:19.766Z,211.47
2023-02-03T16:35:06.472Z,184.47
2023-02-03T16:38:01.906Z,203.43
2023-02-03T16:40:47.195Z,190.53
2023-02-03T16:43:34.108Z,203.83
2023-02-03T16:46:21.793Z,195.10
2023-02-03T16:49:07.296Z,200.20
2023-02-03T16:51:40.577Z,200.57
2023-02-03T16:54:10.921Z,214.47
2023-02-03T16:56:38.786Z,207.27
2023-02-03T16:59:07.166Z,201.50
2023-02-03T17:01:35.640Z,201.67
2023-02-03T17:04:03.396Z,205.80
2023-02-03T17:06:32.808Z,205.80
2023-02-03T17:09:02.330Z,207.47
2023-02-03T17:11:30.103Z,203.87
2023-02-03T17:13:58.118Z,210.10
2023-02-03T17:16:27.855Z,207.00
2023-02-03T17:18:55.926Z,211.10
2023-02-03T17:21:26.340Z,215.33
2023-02-03T17:23:54.187Z,226.83
2023-02-03T17:26:23.210Z,209.80
2023-02-03T17:28:50.894Z,219.63
2023-02-03T17:31:20.704Z,221.43
2023-02-03T17:33:51.820Z,200.70
2023-02-03T17:36:21.594Z,213.77
2023-02-03T17:55:26.139Z,184.17
2023-02-03T17:57:55.212Z,202.67
2023-02-03T18:00:23.331Z,203.37
2023-02-03T18:02:51.781Z,196.70
2023-02-03T18:05:20.389Z,189.63
2023-02-03T18:10:17.035Z,181.73
2023-02-03T18:12:44.751Z,209.53
2023-02-03T18:15:13.736Z,202.93
2023-02-03T18:17:41.602Z,210.40
2023-02-03T18:20:10.359Z,202.00
2023-02-03T18:22:38.028Z,196.77
2023-02-03T18:25:06.435Z,201.43
2023-02-03T18:27:34.081Z,195.20
2023-02-03T18:30:01.752Z,208.63
2023-02-03T18:32:30.804Z,196.83
2023-02-03T18:34:59.344Z,206.50
2023-02-03T18:37:28.281Z,191.67
2023-02-03T18:39:55.935Z,197.93
2023-02-03T18:42:23.573Z,207.03
2023-02-03T18:44:51.255Z,205.73
2023-02-03T18:47:18.880Z,197.30
2023-02-03T18:49:47.912Z,207.90
2023-02-03T18:52:15.563Z,191.63
2023-02-03T18:54:43.180Z,202.97
2023-02-03T18:57:13.178Z,188.83
2023-02-03T18:59:40.914Z,200.17
2023-02-03T19:02:10.768Z,197.67
2023-02-03T19:04:38.427Z,215.53
2023-02-03T19:07:07.430Z,192.20
2023-02-03T19:09:35.326Z,213.00
2023-02-03T19:12:04.110Z,201.17
2023-02-03T19:14:32.585Z,191.10
2023-02-03T19:17:00.280Z,219.90
2023-02-03T19:19:28.068Z,206.73
2023-02-03T19:21:55.739Z,210.80
2023-02-03T19:24:26.650Z,202.37
2023-02-03T19:26:54.918Z,216.10
2023-02-03T19:29:22.537Z,203.10
2023-02-03T19:31:50.691Z,205.83
2023-02-03T19:34:18.726Z,225.37
2023-02-03T19:36:46.958Z,212.13
2023-02-03T19:39:14.804Z,209.00
2023-02-03T19:41:43.860Z,190.50
2023-02-03T19:44:11.752Z,209.50
2023-02-03T19:46:41.551Z,211.13
2023-02-03T19:49:11.839Z,197.73
2023-02-03T19:51:40.381Z,196.80
2023-02-03T19:54:08.989Z,212.53
2023-02-03T19:56:36.643Z,224.37
2023-02-03T19:59:05.892Z,221.27
2023-02-03T20:01:33.607Z,228.13
2023-02-03T20:04:01.764Z,217.90
2023-02-03T20:06:31.487Z,221.93
2023-02-03T20:09:00.130Z,219.07
2023-02-03T20:11:28.011Z,225.67
2023-02-03T20:13:55.950Z,229.80
2023-02-03T20:16:25.022Z,223.00
2023-02-03T20:18:52.662Z,242.80
2023-02-03T20:21:20.781Z,232.23
2023-02-03T20:23:48.495Z,243.73
2023-02-03T20:26:16.293Z,230.70
2023-02-03T20:28:45.830Z,258.00
2023-02-03T20:31:14.204Z,243.23
2023-02-03T20:33:43.551Z,237.80
2023-02-03T20:36:12.249Z,246.40
2023-02-03T20:38:39.961Z,254.60
2023-02-03T20:41:10.284Z,266.77
2023-02-03T20:43:38.100Z,248.93
2023-02-03T20:46:11.178Z,249.07
2023-02-03T20:48:39.198Z,247.17
2023-02-03T20:51:12.057Z,233.47
2023-02-03T20:53:40.536Z,253.07
2023-02-03T20:56:13.939Z,248.87
2023-02-03T20:58:42.580Z,231.83
2023-02-03T21:01:14.657Z,244.90
2023-02-03T21:03:59.780Z,252.33
2023-02-03T21:06:30.082Z,249.00
2023-02-03T21:09:02.572Z,254.00
2023-02-03T21:11:30.674Z,249.83
2023-02-03T21:13:58.348Z,241.20
2023-02-03T21:16:30.696Z,244.83
2023-02-03T21:19:02.629Z,241.33
2023-02-03T21:21:36.118Z,232.07
2023-02-03T21:24:24.354Z,229.60
2023-02-03T21:26:52.143Z,241.23
2023-02-03T21:29:25.121Z,244.40
2023-02-03T21:31:53.717Z,234.23
2023-02-03T21:34:28.373Z,239.93
2023-02-03T21:36:58.341Z,233.23
2023-02-03T21:39:28.930Z,232.53
2023-02-03T21:41:57.341Z,243.00
2023-02-03T21:44:28.555Z,247.97
2023-02-03T21:46:56.547Z,246.43
2023-02-03T21:49:24.175Z,247.97
2023-02-03T21:51:51.852Z,259.80
2023-02-03T21:54:27.969Z,243.00
2023-02-03T21:56:55.738Z,253.03
2023-02-03T21:59:28.361Z,262.33
2023-02-03T22:01:57.668Z,250.57
2023-02-03T22:04:27.973Z,258.23
2023-02-03T22:06:55.866Z,244.00
2023-02-03T22:09:25.920Z,267.10
2023-02-03T22:11:53.928Z,249.67
2023-02-03T22:14:21.796Z,249.83
2023-02-03T22:16:49.796Z,252.90
2023-02-03T22:19:17.527Z,254.50
2023-02-03T22:21:47.673Z,250.03
2023-02-03T22:24:15.346Z,258.93
2023-02-03T22:26:44.343Z,249.40
2023-02-03T22:29:11.966Z,239.10
2023-02-03T22:31:40.757Z,249.83
2023-02-03T22:34:09.185Z,255.20
2023-02-03T22:36:37.313Z,267.17
2023-02-03T22:39:05.322Z,239.47
2023-02-03T22:41:32.991Z,252.57
2023-02-03T22:44:03.023Z,242.17
2023-02-03T22:46:30.655Z,242.73
2023-02-03T22:48:58.281Z,241.23
2023-02-03T22:51:26.280Z,240.30
2023-02-03T22:53:54.008Z,251.07
2023-02-03T22:56:23.457Z,243.10
2023-02-03T22:58:51.312Z,230.77
2023-02-03T23:01:20.295Z,254.20
2023-02-03T23:03:47.985Z,238.00
2023-02-03T23:06:15.612Z,249.00
2023-02-03T23:08:43.309Z,251.00
2023-02-03T23:11:11.014Z,243.00
2023-02-03T23:13:38.698Z,245.27
2023-02-03T23:16:06.814Z,241.43
2023-02-03T23:18:35.779Z,242.73
2023-02-03T23:21:03.558Z,247.70
2023-02-03T23:23:31.240Z,247.77
2023-02-03T23:25:58.901Z,239.10
2023-02-03T23:28:26.533Z,233.33
2023-02-03T23:30:55.876Z,254.77
2023-02-03T23:33:23.887Z,239.03
2023-02-03T23:35:52.585Z,231.30
2023-02-03T23:38:20.245Z,242.20
2023-02-03T23:40:48.560Z,237.37
2023-02-03T23:43:16.837Z,252.27
2023-02-03T23:45:44.523Z,254.43
2023-02-03T23:48:12.455Z,244.13
2023-02-03T23:50:40.223Z,239.57
2023-02-03T23:53:09.964Z,235.83
2023-02-03T23:55:37.624Z,249.73
2023-02-03T23:58:05.914Z,232.07
